createdAt,value
2017-10-29T00:02:07.616Z,11.30
2017-10-29T00:04:36.891Z,11.20
2017-10-29T00:07:06.131Z,11.30
2017-10-29T00:09:35.380Z,11.30
2017-10-29T00:12:04.657Z,11.30
2017-10-29T00:14:33.904Z,11.40
2017-10-29T00:17:03.148Z,11.40
2017-10-29T00:19:32.473Z,11.40
2017-10-29T00:22:01.716Z,11.40
2017-10-29T00:24:30.966Z,11.30
2017-10-29T00:27:00.236Z,11.30
2017-10-29T00:29:29.481Z,11.40
2017-10-29T00:31:58.743Z,11.40
2017-10-29T00:34:27.999Z,11.40
2017-10-29T00:36:57.256Z,11.40
2017-10-29T00:39:27.298Z,11.30
2017-10-29T00:41:56.553Z,11.30
2017-10-29T00:44:25.795Z,11.30
2017-10-29T00:46:55.088Z,11.40
2017-10-29T00:49:25.107Z,11.40
2017-10-29T00:51:55.144Z,11.50
2017-10-29T00:54:24.394Z,11.50
2017-10-29T00:56:53.687Z,11.50
2017-10-29T00:59:22.947Z,11.40
2017-10-29T02:04:05.373Z,11.50
2017-10-29T02:06:34.655Z,11.50
2017-10-29T02:09:03.903Z,11.40
2017-10-29T02:11:33.153Z,11.40
2017-10-29T02:14:02.442Z,11.40
2017-10-29T02:16:31.667Z,11.50
2017-10-29T02:19:00.916Z,11.40
2017-10-29T02:21:30.199Z,11.40
2017-10-29T02:24:00.207Z,11.40
2017-10-29T02:26:30.251Z,11.40
2017-10-29T02:28:59.495Z,11.40
2017-10-29T02:31:28.749Z,11.40
2017-10-29T02:33:58.020Z,11.40
2017-10-29T02:36:27.253Z,11.40
2017-10-29T02:38:56.519Z,11.30
2017-10-29T02:41:25.915Z,11.40
2017-10-29T02:43:55.154Z,11.40
2017-10-29T02:46:24.391Z,11.50
2017-10-29T02:48:53.673Z,11.50
2017-10-29T02:51:22.927Z,11.50
2017-10-29T02:53:52.219Z,11.50
2017-10-29T02:56:22.246Z,11.50
2017-10-29T02:58:51.493Z,11.50
2017-10-29T03:01:20.811Z,11.60
2017-10-29T03:03:50.162Z,11.50
2017-10-29T03:06:19.400Z,11.50
2017-10-29T03:08:48.648Z,11.40
2017-10-29T03:11:17.938Z,11.40
2017-10-29T03:13:47.240Z,11.40
2017-10-29T03:16:16.477Z,11.40
2017-10-29T03:18:45.715Z,11.40
2017-10-29T03:21:15.007Z,11.40
2017-10-29T03:23:44.239Z,11.50
2017-10-29T03:26:13.549Z,11.40
2017-10-29T03:28:43.600Z,11.40
2017-10-29T03:31:12.899Z,11.40
2017-10-29T03:33:42.141Z,11.40
2017-10-29T03:36:11.416Z,11.40
2017-10-29T03:38:40.735Z,11.50
2017-10-29T03:41:10.096Z,11.50
2017-10-29T03:43:39.330Z,11.50
2017-10-29T03:46:08.820Z,11.40
2017-10-29T03:48:38.060Z,11.50
2017-10-29T03:51:07.339Z,11.40
2017-10-29T03:53:36.610Z,11.40
2017-10-29T03:56:05.869Z,11.40
2017-10-29T03:58:35.943Z,11.40
2017-10-29T04:01:05.197Z,11.40
2017-10-29T04:03:35.202Z,11.40
2017-10-29T04:06:04.491Z,11.40
2017-10-29T04:08:33.727Z,11.40
2017-10-29T04:11:02.993Z,11.40
2017-10-29T04:13:32.274Z,11.40
2017-10-29T04:16:01.513Z,11.50
2017-10-29T04:18:31.551Z,11.40
2017-10-29T04:21:00.820Z,11.40
2017-10-29T04:23:30.124Z,11.40
2017-10-29T04:25:59.406Z,11.40
2017-10-29T04:28:28.637Z,11.40
2017-10-29T04:30:58.686Z,11.40
2017-10-29T04:33:27.939Z,11.40
2017-10-29T04:35:57.190Z,11.40
2017-10-29T04:38:26.479Z,11.40
2017-10-29T04:40:55.726Z,11.30
2017-10-29T04:43:24.986Z,11.30
2017-10-29T04:45:54.237Z,11.30
2017-10-29T04:48:23.499Z,11.30
2017-10-29T04:50:52.745Z,11.30
2017-10-29T04:53:22.015Z,11.30
2017-10-29T04:55:51.255Z,11.30
2017-10-29T04:58:21.311Z,11.30
2017-10-29T05:00:50.543Z,11.30
2017-10-29T05:03:19.802Z,11.40
2017-10-29T05:05:49.161Z,11.50
2017-10-29T05:08:18.400Z,11.40
2017-10-29T05:10:47.847Z,11.50
2017-10-29T05:13:17.115Z,11.50
2017-10-29T05:15:46.362Z,11.50
2017-10-29T05:18:15.651Z,11.50
2017-10-29T05:20:44.884Z,11.50
2017-10-29T05:23:14.131Z,11.50
2017-10-29T05:25:43.448Z,11.50
2017-10-29T05:28:12.666Z,11.50
2017-10-29T05:30:42.703Z,11.50
2017-10-29T05:33:11.974Z,11.50
2017-10-29T05:35:41.179Z,11.50
2017-10-29T05:38:10.452Z,11.50
2017-10-29T05:40:39.695Z,11.60
2017-10-29T05:43:09.851Z,11.60
2017-10-29T05:45:39.090Z,11.60
2017-10-29T05:48:08.347Z,11.60
2017-10-29T05:50:37.626Z,11.60
2017-10-29T05:53:06.864Z,11.70
2017-10-29T05:55:36.098Z,11.70
2017-10-29T05:58:05.387Z,11.70
2017-10-29T06:00:34.684Z,11.80
2017-10-29T06:03:03.928Z,11.80
2017-10-29T06:05:33.235Z,11.80
2017-10-29T06:08:02.485Z,11.80
2017-10-29T06:10:31.877Z,11.90
2017-10-29T06:13:01.137Z,11.90
2017-10-29T06:15:30.387Z,11.90
2017-10-29T06:17:59.651Z,11.90
2017-10-29T06:20:29.027Z,12.00
2017-10-29T06:22:59.049Z,12.20
2017-10-29T06:25:29.084Z,12.30
2017-10-29T06:27:59.140Z,12.30
2017-10-29T06:30:28.429Z,12.30
2017-10-29T06:32:57.681Z,12.40
2017-10-29T06:35:28.087Z,12.40
2017-10-29T06:37:57.356Z,12.40
2017-10-29T06:40:26.630Z,12.50
2017-10-29T06:42:55.880Z,12.50
2017-10-29T06:45:25.353Z,12.50
2017-10-29T06:47:54.580Z,12.50
2017-10-29T06:50:23.821Z,12.50
2017-10-29T06:52:53.079Z,12.60
2017-10-29T06:55:22.327Z,12.50
2017-10-29T06:57:51.580Z,12.60
2017-10-29T07:00:20.840Z,12.60
2017-10-29T07:02:50.085Z,12.60
2017-10-29T07:05:19.357Z,12.70
2017-10-29T07:07:48.621Z,12.70
2017-10-29T07:10:17.874Z,12.80
2017-10-29T07:12:47.152Z,12.80
2017-10-29T07:15:16.421Z,12.80
2017-10-29T07:17:45.695Z,12.80
2017-10-29T07:20:14.960Z,12.90
2017-10-29T07:22:44.220Z,12.90
2017-10-29T07:25:14.940Z,12.80
2017-10-29T07:27:44.192Z,12.80
2017-10-29T07:30:13.459Z,12.80
2017-10-29T07:32:43.598Z,12.80
2017-10-29T07:35:12.848Z,12.80
2017-10-29T07:37:42.100Z,12.90
2017-10-29T07:40:13.348Z,13.00
2017-10-29T07:42:42.705Z,13.00
2017-10-29T07:45:11.956Z,12.90
2017-10-29T07:47:41.325Z,12.90
2017-10-29T07:50:11.374Z,12.90
2017-10-29T07:52:40.658Z,12.90
2017-10-29T07:55:09.900Z,12.90
2017-10-29T07:57:39.144Z,12.90
2017-10-29T08:00:09.188Z,12.80
2017-10-29T08:02:38.431Z,12.80
2017-10-29T08:05:07.716Z,12.80
2017-10-29T08:07:36.994Z,12.90
2017-10-29T08:10:06.259Z,12.90
2017-10-29T08:12:36.348Z,13.00
2017-10-29T08:15:05.589Z,13.00
2017-10-29T08:17:35.622Z,13.10
2017-10-29T08:20:04.913Z,13.10
2017-10-29T08:22:34.163Z,13.10
2017-10-29T08:25:03.414Z,13.10
2017-10-29T08:27:32.683Z,13.20
2017-10-29T08:30:01.937Z,13.20
2017-10-29T08:32:31.192Z,13.20
2017-10-29T08:35:00.456Z,13.20
2017-10-29T08:37:33.118Z,13.30
2017-10-29T08:40:04.990Z,13.30
2017-10-29T08:42:35.817Z,13.40
2017-10-29T08:45:07.089Z,13.40
2017-10-29T08:47:45.106Z,13.50
2017-10-29T08:50:14.600Z,13.50
2017-10-29T08:52:44.683Z,13.50
2017-10-29T08:55:21.447Z,13.60
2017-10-29T08:57:56.220Z,13.60
2017-10-29T09:00:29.284Z,13.70
2017-10-29T09:03:11.572Z,13.60
2017-10-29T09:05:51.207Z,13.60
2017-10-29T09:08:21.488Z,13.60
2017-10-29T09:10:50.736Z,13.50
2017-10-29T09:13:19.997Z,13.50
2017-10-29T09:15:49.284Z,13.40
2017-10-29T09:18:18.559Z,13.40
2017-10-29T09:21:06.361Z,13.30
2017-10-29T09:23:44.912Z,13.30
2017-10-29T09:29:15.462Z,13.20
2017-10-29T09:31:45.039Z,13.00
2017-10-29T09:34:14.446Z,12.90
2017-10-29T09:37:02.557Z,12.50
2017-10-29T09:39:34.152Z,11.90
2017-10-29T09:42:04.378Z,11.30
2017-10-29T09:44:35.248Z,11.30
2017-10-29T09:47:07.326Z,11.10
2017-10-29T09:49:41.759Z,11.00
2017-10-29T09:54:56.030Z,10.90
2017-10-29T09:57:27.005Z,10.80
2017-10-29T09:59:57.728Z,10.90
2017-10-29T10:02:27.131Z,10.80
2017-10-29T10:04:58.392Z,10.90
2017-10-29T10:07:36.236Z,11.00
2017-10-29T10:10:06.151Z,11.00
2017-10-29T10:12:44.097Z,11.10
2017-10-29T10:15:13.820Z,11.10
2017-10-29T10:17:43.849Z,11.20
2017-10-29T10:20:13.126Z,11.20
2017-10-29T10:22:42.368Z,11.20
2017-10-29T10:25:11.615Z,11.20
2017-10-29T10:27:40.887Z,11.30
2017-10-29T10:30:10.140Z,11.30
2017-10-29T10:32:40.199Z,11.40
2017-10-29T10:35:09.440Z,11.40
2017-10-29T10:37:38.754Z,11.40
2017-10-29T10:40:08.034Z,11.40
2017-10-29T10:42:37.261Z,11.50
2017-10-29T10:45:07.307Z,11.50
2017-10-29T10:47:37.502Z,11.50
2017-10-29T10:50:06.805Z,11.50
2017-10-29T10:52:36.867Z,11.40
2017-10-29T10:55:06.116Z,11.40
2017-10-29T10:57:35.456Z,11.30
2017-10-29T11:00:04.882Z,11.30
2017-10-29T11:02:34.123Z,11.30
2017-10-29T11:05:04.173Z,11.40
2017-10-29T11:07:33.444Z,11.40
2017-10-29T11:10:03.502Z,11.50
2017-10-29T11:12:32.785Z,11.50
2017-10-29T11:15:02.062Z,11.50
2017-10-29T11:17:31.305Z,11.50
2017-10-29T11:20:00.651Z,11.60
2017-10-29T11:22:29.921Z,11.70
2017-10-29T11:24:59.180Z,11.70
2017-10-29T11:27:28.468Z,11.80
2017-10-29T11:29:57.788Z,11.80
2017-10-29T11:32:27.039Z,11.90
2017-10-29T11:34:56.442Z,11.90
2017-10-29T11:37:25.698Z,11.90
2017-10-29T11:39:54.982Z,11.80
2017-10-29T11:42:25.060Z,11.80
2017-10-29T11:44:54.378Z,11.80
2017-10-29T11:47:24.640Z,11.80
2017-10-29T11:49:53.918Z,11.80
2017-10-29T11:52:23.992Z,11.90
2017-10-29T11:54:53.250Z,11.90
2017-10-29T11:57:22.502Z,11.90
2017-10-29T11:59:51.784Z,11.90
2017-10-29T12:02:21.043Z,11.90
2017-10-29T12:04:50.381Z,11.90
2017-10-29T12:07:19.624Z,11.90
2017-10-29T12:09:49.659Z,11.80
2017-10-29T12:12:18.955Z,11.90
2017-10-29T12:14:48.979Z,11.90
2017-10-29T12:17:19.049Z,12.00
2017-10-29T12:22:53.672Z,12.00
2017-10-29T12:25:22.920Z,11.90
2017-10-29T12:27:52.171Z,11.90
2017-10-29T12:30:21.492Z,11.90
2017-10-29T12:32:50.748Z,11.90
2017-10-29T12:35:21.142Z,11.90
2017-10-29T12:37:50.344Z,11.80
2017-10-29T12:40:19.613Z,11.80
2017-10-29T12:42:48.896Z,11.90
2017-10-29T12:45:18.227Z,11.90
2017-10-29T12:47:47.488Z,11.90
2017-10-29T12:50:17.708Z,11.90
2017-10-29T12:52:46.960Z,11.80
2017-10-29T12:55:16.219Z,11.60
2017-10-29T12:57:45.497Z,11.60
2017-10-29T13:00:15.584Z,11.60
2017-10-29T13:02:44.888Z,11.60
2017-10-29T13:05:14.200Z,11.60
2017-10-29T13:07:43.516Z,11.60
2017-10-29T13:10:13.552Z,11.70
2017-10-29T13:12:42.840Z,11.70
2017-10-29T13:15:12.118Z,11.70
2017-10-29T13:17:41.353Z,11.70
2017-10-29T13:20:10.651Z,11.70
2017-10-29T13:22:40.037Z,11.80
2017-10-29T13:25:10.111Z,11.80
2017-10-29T13:27:39.373Z,11.80
2017-10-29T13:30:08.627Z,11.80
2017-10-29T13:32:37.929Z,11.90
2017-10-29T13:35:07.175Z,11.80
2017-10-29T13:37:36.429Z,11.90
2017-10-29T13:40:05.869Z,11.80
2017-10-29T13:42:35.080Z,11.80
2017-10-29T13:45:04.323Z,11.80
2017-10-29T13:47:33.596Z,11.80
2017-10-29T13:50:02.860Z,11.80
2017-10-29T13:52:32.911Z,11.80
2017-10-29T13:55:02.194Z,11.80
2017-10-29T13:57:32.223Z,11.70
2017-10-29T14:00:01.563Z,11.70
2017-10-29T14:02:30.844Z,11.70
2017-10-29T14:05:00.067Z,11.80
2017-10-29T14:07:29.352Z,11.70
2017-10-29T14:09:58.607Z,11.80
2017-10-29T14:12:27.872Z,11.80
2017-10-29T14:14:57.161Z,11.80
2017-10-29T14:17:26.411Z,11.90
2017-10-29T14:19:55.671Z,11.90
2017-10-29T14:22:24.959Z,11.90
2017-10-29T14:24:54.224Z,12.00
2017-10-29T14:27:23.471Z,12.00
2017-10-29T14:29:53.005Z,12.00
2017-10-29T14:32:22.295Z,12.10
2017-10-29T14:34:53.923Z,12.10
2017-10-29T14:37:23.160Z,12.10
2017-10-29T14:39:53.495Z,12.00
2017-10-29T14:42:22.914Z,11.90
2017-10-29T14:44:52.264Z,11.90
2017-10-29T14:47:21.953Z,11.90
2017-10-29T14:49:51.302Z,11.80
2017-10-29T14:52:21.467Z,11.80
2017-10-29T14:54:51.600Z,11.80
2017-10-29T14:57:20.946Z,11.70
2017-10-29T14:59:50.388Z,11.70
2017-10-29T15:02:19.769Z,11.60
2017-10-29T15:04:49.251Z,11.60
2017-10-29T15:07:18.590Z,11.60
2017-10-29T15:09:47.975Z,11.60
2017-10-29T15:12:18.045Z,11.60
2017-10-29T15:14:47.382Z,11.60
2017-10-29T15:17:16.835Z,11.60
2017-10-29T15:19:46.112Z,11.60
2017-10-29T15:22:15.436Z,11.60
2017-10-29T15:24:45.180Z,11.60
2017-10-29T15:27:14.615Z,11.70
2017-10-29T15:29:43.988Z,11.70
2017-10-29T15:32:13.308Z,11.70
2017-10-29T15:34:42.690Z,11.70
2017-10-29T15:37:12.254Z,11.70
2017-10-29T15:39:41.761Z,11.70
2017-10-29T15:42:11.302Z,11.60
2017-10-29T15:44:41.451Z,11.70
2017-10-29T15:47:10.922Z,11.70
2017-10-29T15:49:40.359Z,11.70
2017-10-29T15:52:09.779Z,11.70
2017-10-29T15:54:39.168Z,11.70
2017-10-29T15:57:08.603Z,11.80
2017-10-29T15:59:38.887Z,11.80
2017-10-29T16:02:08.326Z,11.70
2017-10-29T16:04:38.596Z,11.80
2017-10-29T16:07:10.761Z,11.70
2017-10-29T16:09:40.110Z,11.80
2017-10-29T16:12:09.496Z,11.80
2017-10-29T16:14:39.030Z,11.80
2017-10-29T16:17:08.517Z,11.80
2017-10-29T16:19:38.714Z,11.70
2017-10-29T16:22:08.085Z,11.70
2017-10-29T16:24:38.897Z,11.70
2017-10-29T16:27:08.424Z,11.70
2017-10-29T16:29:38.104Z,11.60
2017-10-29T16:32:07.533Z,11.60
2017-10-29T16:34:36.767Z,11.50
2017-10-29T16:37:06.065Z,11.50
2017-10-29T16:39:35.320Z,11.40
2017-10-29T16:42:04.552Z,11.40
2017-10-29T16:44:33.884Z,11.40
2017-10-29T16:47:03.128Z,11.30
2017-10-29T16:49:38.471Z,11.30
2017-10-29T16:52:13.861Z,11.20
2017-10-29T16:54:45.352Z,11.10
2017-10-29T16:57:19.411Z,11.00
2017-10-29T16:59:54.378Z,11.00
2017-10-29T17:02:32.987Z,10.90
2017-10-29T17:05:07.449Z,10.80
2017-10-29T17:07:49.655Z,10.70
2017-10-29T17:10:25.911Z,10.60
2017-10-29T17:13:02.688Z,10.70
2017-10-29T17:15:44.258Z,10.70
2017-10-29T17:18:21.849Z,10.60
2017-10-29T17:21:08.592Z,10.60
2017-10-29T17:23:38.737Z,10.60
2017-10-29T17:26:07.983Z,10.60
2017-10-29T17:28:38.019Z,10.60
2017-10-29T17:31:07.300Z,10.60
2017-10-29T17:33:36.535Z,10.60
2017-10-29T17:36:05.784Z,10.60
2017-10-29T17:38:35.132Z,10.50
2017-10-29T17:41:05.117Z,10.50
2017-10-29T17:43:35.143Z,10.40
2017-10-29T17:46:05.184Z,10.40
2017-10-29T17:48:34.456Z,10.40
2017-10-29T17:51:04.506Z,10.40
2017-10-29T17:53:33.999Z,10.40
2017-10-29T17:56:03.240Z,10.50
2017-10-29T17:58:32.480Z,10.50
2017-10-29T18:01:01.783Z,10.50
2017-10-29T18:03:31.801Z,10.40
2017-10-29T18:06:01.892Z,10.40
2017-10-29T18:08:31.130Z,10.40
2017-10-29T18:11:00.371Z,10.40
2017-10-29T18:13:29.716Z,10.40
2017-10-29T18:15:58.960Z,10.40
2017-10-29T18:18:28.239Z,10.50
2017-10-29T18:20:57.489Z,10.50
2017-10-29T18:23:26.723Z,10.40
2017-10-29T18:25:56.754Z,10.40
2017-10-29T18:28:26.083Z,10.40
2017-10-29T18:30:55.300Z,10.30
2017-10-29T18:33:24.564Z,10.30
2017-10-29T18:35:53.876Z,10.30
2017-10-29T18:38:23.121Z,10.10
2017-10-29T18:40:52.367Z,10.00
2017-10-29T18:43:21.641Z,10.00
2017-10-29T18:45:51.656Z,9.70
2017-10-29T18:48:20.899Z,9.70
2017-10-29T18:50:50.169Z,9.70
2017-10-29T18:53:20.164Z,9.60
2017-10-29T18:55:49.440Z,9.60
2017-10-29T18:58:18.679Z,9.60
2017-10-29T19:00:48.687Z,9.60
2017-10-29T19:03:18.751Z,9.40
2017-10-29T19:05:48.728Z,9.40
2017-10-29T19:08:18.762Z,9.40
2017-10-29T19:10:48.064Z,9.30
2017-10-29T19:13:18.080Z,9.30
2017-10-29T19:15:47.385Z,9.30
2017-10-29T19:18:16.675Z,9.30
2017-10-29T19:20:46.736Z,9.30
2017-10-29T19:23:15.971Z,9.30
2017-10-29T19:25:45.204Z,9.20
2017-10-29T19:28:14.462Z,9.20
2017-10-29T19:30:43.687Z,9.20
2017-10-29T19:33:13.056Z,9.10
2017-10-29T19:35:42.291Z,9.10
2017-10-29T19:38:12.302Z,9.00
2017-10-29T19:40:41.774Z,8.90
2017-10-29T19:43:11.204Z,9.00
2017-10-29T19:45:40.463Z,8.90
2017-10-29T19:48:09.831Z,8.90
2017-10-29T19:50:39.055Z,8.90
2017-10-29T19:53:08.444Z,8.80
2017-10-29T19:55:37.688Z,8.80
2017-10-29T19:58:06.998Z,8.70
2017-10-29T20:00:37.440Z,8.70
2017-10-29T20:03:06.668Z,8.70
2017-10-29T20:05:35.922Z,8.80
2017-10-29T20:08:05.943Z,8.60
2017-10-29T20:10:35.209Z,8.60
2017-10-29T20:13:04.447Z,8.60
2017-10-29T20:15:33.752Z,8.70
2017-10-29T20:18:03.766Z,8.70
2017-10-29T20:20:35.011Z,8.70
2017-10-29T20:23:05.067Z,8.70
2017-10-29T20:25:35.970Z,8.80
2017-10-29T20:28:05.243Z,8.70
2017-10-29T20:30:34.560Z,8.70
2017-10-29T20:33:03.860Z,8.70
2017-10-29T20:35:33.116Z,8.70
2017-10-29T20:38:02.358Z,8.70
2017-10-29T20:40:31.595Z,8.60
2017-10-29T20:43:00.881Z,8.60
2017-10-29T20:45:30.113Z,8.60
2017-10-29T20:47:59.351Z,8.60
2017-10-29T20:50:29.399Z,8.60
2017-10-29T20:52:58.637Z,8.50
2017-10-29T20:55:27.879Z,8.60
2017-10-29T20:57:57.181Z,8.60
2017-10-29T21:00:27.314Z,8.50
2017-10-29T21:02:57.357Z,8.50
2017-10-29T21:05:27.333Z,8.50
2017-10-29T21:07:56.676Z,8.50
2017-10-29T21:10:25.900Z,8.50
2017-10-29T21:12:55.133Z,8.40
2017-10-29T21:15:24.379Z,8.40
2017-10-29T21:17:53.656Z,8.40
2017-10-29T21:20:23.655Z,8.40
2017-10-29T21:22:53.667Z,8.40
2017-10-29T21:25:23.040Z,8.40
2017-10-29T21:27:52.268Z,8.40
2017-10-29T21:30:21.496Z,8.40
2017-10-29T21:32:50.783Z,8.30
2017-10-29T21:35:20.022Z,8.30
2017-10-29T21:37:49.272Z,8.20
2017-10-29T21:40:18.563Z,8.30
2017-10-29T21:42:47.813Z,8.30
2017-10-29T21:45:17.057Z,8.20
2017-10-29T21:47:46.312Z,8.10
2017-10-29T21:50:15.634Z,8.10
2017-10-29T21:52:45.067Z,8.20
2017-10-29T21:55:14.318Z,8.10
2017-10-29T21:57:43.589Z,8.10
2017-10-29T22:00:13.601Z,8.00
2017-10-29T22:02:42.867Z,8.00
2017-10-29T22:05:12.110Z,8.00
2017-10-29T22:07:41.353Z,8.10
2017-10-29T22:10:10.649Z,8.10
2017-10-29T22:12:40.655Z,8.00
2017-10-29T22:15:09.915Z,8.00
2017-10-29T22:17:39.195Z,8.00
2017-10-29T22:20:08.429Z,7.90
2017-10-29T22:22:38.460Z,8.00
2017-10-29T22:25:07.709Z,8.00
2017-10-29T22:27:36.938Z,8.00
2017-10-29T22:30:06.965Z,8.00
2017-10-29T22:32:36.999Z,8.00
2017-10-29T22:35:06.344Z,7.90
2017-10-29T22:37:35.584Z,8.00
2017-10-29T22:40:05.740Z,8.00
2017-10-29T22:42:34.969Z,8.00
2017-10-29T22:45:04.206Z,7.90
2017-10-29T22:47:34.232Z,7.90
2017-10-29T22:50:03.473Z,7.90
2017-10-29T22:52:32.718Z,7.90
2017-10-29T22:55:03.114Z,7.90
2017-10-29T22:57:32.355Z,7.80
2017-10-29T23:00:01.596Z,7.80
2017-10-29T23:02:30.864Z,7.80
2017-10-29T23:05:09.669Z,7.70
2017-10-29T23:07:53.066Z,7.80
2017-10-29T23:10:22.293Z,7.80
2017-10-29T23:12:52.351Z,7.70
2017-10-29T23:15:21.631Z,7.70
2017-10-29T23:17:50.873Z,7.70
2017-10-29T23:20:20.149Z,7.60
2017-10-29T23:22:49.360Z,7.50
2017-10-29T23:25:18.620Z,7.40
2017-10-29T23:27:48.626Z,7.40
2017-10-29T23:30:18.683Z,7.30
2017-10-29T23:32:47.949Z,7.30
2017-10-29T23:35:18.072Z,7.30
2017-10-29T23:37:48.090Z,7.30
2017-10-29T23:40:18.193Z,7.30
2017-10-29T23:42:47.440Z,7.30
2017-10-29T23:45:16.738Z,7.30
2017-10-29T23:47:45.999Z,7.30
2017-10-29T23:50:16.030Z,7.30
2017-10-29T23:52:46.052Z,7.20
2017-10-29T23:55:15.324Z,7.20
2017-10-29T23:57:44.577Z,7.20
